createdAt,value
2018-08-10T00:03:56.079Z,4
2018-08-10T00:14:15.996Z,3.4
2018-08-10T00:24:38.395Z,3
2018-08-10T00:34:38.679Z,4.4
2018-08-10T00:45:01.148Z,2.3
2018-08-10T00:55:14.691Z,4
2018-08-10T01:05:40.447Z,6.2
2018-08-10T01:14:08.700Z,3
2018-08-10T01:24:18.257Z,4.3
2018-08-10T01:34:23.261Z,3.8
2018-08-10T01:44:32.711Z,2.4
2018-08-10T01:54:38.835Z,3.7
2018-08-10T02:04:52.774Z,3.7
2018-08-10T02:14:56.702Z,2.4
2018-08-10T02:25:01.437Z,4.3
2018-08-10T02:35:01.951Z,3.2
2018-08-10T02:45:10.705Z,2.9
2018-08-10T02:55:14.766Z,3.7
2018-08-10T03:05:17.740Z,3.9
2018-08-10T03:15:24.822Z,3.8
2018-08-10T03:25:34.806Z,4.9
2018-08-10T03:35:45.170Z,4.3
2018-08-10T03:45:45.601Z,6.2
2018-08-10T03:55:55.184Z,3.6
2018-08-10T04:06:02.741Z,3.5
2018-08-10T04:16:11.358Z,3.6
2018-08-10T04:26:12.423Z,4.7
2018-08-10T04:36:15.114Z,2.4
2018-08-10T04:46:15.145Z,4
2018-08-10T04:56:26.484Z,2
2018-08-10T05:06:37.101Z,2.3
2018-08-10T05:16:42.887Z,1.8
2018-08-10T05:26:49.297Z,0.8
2018-08-10T05:36:51.135Z,1.1
2018-08-10T05:46:54.785Z,1.6
2018-08-10T05:56:57.144Z,1.5
2018-08-10T06:07:02.035Z,1
2018-08-10T06:18:05.663Z,1.3
2018-08-10T06:28:13.930Z,1.4
2018-08-10T06:38:27.947Z,1.5
2018-08-10T06:48:38.435Z,1.5
2018-08-10T06:58:49.842Z,0.8
2018-08-10T07:09:03.755Z,2.1
2018-08-10T07:19:16.147Z,2.7
2018-08-10T07:29:26.049Z,0.9
2018-08-10T07:39:49.038Z,0.9
2018-08-10T07:50:02.060Z,2.2
2018-08-10T08:00:36.301Z,1.4
2018-08-10T08:10:38.663Z,1
2018-08-10T08:20:41.179Z,1.5
2018-08-10T08:30:49.408Z,1.3
2018-08-10T08:41:05.524Z,1.3
2018-08-10T08:51:11.712Z,1.2
2018-08-10T09:01:11.538Z,1.5
2018-08-10T09:11:14.620Z,1.4
2018-08-10T09:21:14.615Z,2.3
2018-08-10T09:31:17.296Z,2
2018-08-10T09:41:17.952Z,1.5
2018-08-10T09:51:17.574Z,1.3
2018-08-10T10:01:18.423Z,1.9
2018-08-10T10:11:20.879Z,1.3
2018-08-10T10:21:26.783Z,1.5
2018-08-10T10:31:31.385Z,1.4
2018-08-10T10:41:34.168Z,1
2018-08-10T10:51:52.407Z,1.5
2018-08-10T11:01:57.135Z,1.6
2018-08-10T11:12:01.117Z,1.2
2018-08-10T11:22:05.314Z,0.9
2018-08-10T11:32:08.070Z,1.5
2018-08-10T11:42:27.688Z,1.3
2018-08-10T11:53:47.541Z,1.3
2018-08-10T12:03:53.552Z,1.6
2018-08-10T12:14:13.526Z,1.6
2018-08-10T12:24:36.937Z,1.6
2018-08-10T12:34:42.951Z,1.6
2018-08-10T12:44:46.235Z,1.5
2018-08-10T12:54:56.775Z,1.7
2018-08-10T13:05:40.179Z,1.6
2018-08-10T13:16:07.710Z,1.6
2018-08-10T13:26:20.733Z,1.5
2018-08-10T13:36:21.703Z,2.1
2018-08-10T13:46:36.305Z,4.3
2018-08-10T13:56:51.207Z,1.7
2018-08-10T14:06:58.477Z,2.3
2018-08-10T14:17:10.366Z,1.9
2018-08-10T14:27:12.937Z,2.2
2018-08-10T14:37:18.097Z,2.6
2018-08-10T14:47:18.771Z,2.3
2018-08-10T14:57:19.988Z,3.8
2018-08-10T15:07:22.835Z,2.8
2018-08-10T15:17:29.395Z,2.9
2018-08-10T15:27:32.653Z,2.7
2018-08-10T15:38:18.777Z,2.6
2018-08-10T15:49:32.470Z,2.9
2018-08-10T15:59:55.646Z,2.9
2018-08-10T16:09:55.779Z,2.9
2018-08-10T16:19:55.801Z,3
2018-08-10T16:29:59.508Z,2.9
2018-08-10T16:39:59.450Z,3.6
2018-08-10T16:50:00.565Z,2.8
2018-08-10T17:00:00.923Z,3.1
2018-08-10T17:10:00.987Z,3.4
2018-08-10T17:20:00.670Z,3.6
2018-08-10T17:30:04.229Z,4.1
2018-08-10T17:40:03.903Z,3.7
2018-08-10T17:50:03.639Z,3.4
2018-08-10T18:00:03.782Z,3.5
2018-08-10T18:10:07.258Z,5.8
2018-08-10T18:20:07.145Z,3.4
2018-08-10T18:30:10.529Z,3
2018-08-10T18:40:13.488Z,2.9
2018-08-10T18:50:17.721Z,2.9
2018-08-10T19:00:23.413Z,3.4
2018-08-10T19:10:26.734Z,4.6
2018-08-10T19:20:28.584Z,2.6
2018-08-10T19:30:28.617Z,3.1
2018-08-10T19:40:28.497Z,3.2
2018-08-10T19:50:29.096Z,3.7
2018-08-10T20:00:29.010Z,3.7
2018-08-10T20:10:29.458Z,3.3
2018-08-10T20:20:29.837Z,2.9
2018-08-10T20:30:29.407Z,3.3
2018-08-10T20:40:29.247Z,4.6
2018-08-10T20:50:28.950Z,4
2018-08-10T21:00:29.134Z,1.9
2018-08-10T21:10:29.879Z,1.8
2018-08-10T21:20:29.828Z,2.6
2018-08-10T21:30:29.499Z,3.8
2018-08-10T21:40:29.109Z,3.5
2018-08-10T21:50:28.817Z,3
2018-08-10T22:00:28.475Z,1.2
2018-08-10T22:10:28.221Z,2.7
2018-08-10T22:20:28.934Z,1.7
2018-08-10T22:30:28.545Z,2.5
2018-08-10T22:40:28.095Z,1.5
2018-08-10T22:50:27.694Z,1.5
2018-08-10T23:00:27.261Z,2
2018-08-10T23:10:27.822Z,2
2018-08-10T23:20:27.787Z,1.5
2018-08-10T23:30:27.789Z,1.5
2018-08-10T23:40:27.713Z,1.3
2018-08-10T23:50:27.317Z,1.4
